Time;durP1;ratioP1;P1;durP2;ratioP2;P2;SDS_P1;SDS_P2;PMS_P1;PMS_P2;Temp;Humidity;BMP_temperature;BMP_pressure;BME280_temperature;BME280_humidity;BME280_pressure;Samples;Min_cycle;Max_cycle;Signal;HPM_P1;HPM_P2
2022/12/28 00:02:19;;;;;;;10.40;4.93;;;6.00;99.90;;;;;;5088986;28;20062;-77
2022/12/28 00:04:46;;;;;;;9.07;4.35;;;6.00;99.90;;;;;;5089231;28;20051;-76
2022/12/28 00:07:12;;;;;;;10.77;4.63;;;6.00;99.90;;;;;;5089755;28;20044;-76
2022/12/28 00:09:37;;;;;;;9.23;4.68;;;6.00;99.90;;;;;;5083290;28;20113;-77
2022/12/28 00:12:03;;;;;;;11.32;5.00;;;6.00;99.90;;;;;;5087340;28;20044;-76
2022/12/28 00:14:29;;;;;;;14.45;5.32;;;5.90;99.90;;;;;;5069711;28;20039;-76
2022/12/28 00:16:54;;;;;;;13.20;5.22;;;6.00;99.90;;;;;;5068088;28;20043;-76
2022/12/28 00:19:20;;;;;;;12.25;4.97;;;5.90;99.90;;;;;;5070495;28;20052;-76
2022/12/28 00:21:47;;;;;;;14.68;5.53;;;5.90;99.90;;;;;;5089185;28;20069;-76
2022/12/28 00:24:22;;;;;;;14.23;5.68;;;5.90;99.90;;;;;;5070416;28;20093;-77
2022/12/28 00:26:48;;;;;;;9.15;5.00;;;5.90;99.90;;;;;;5070627;28;20048;-76
2022/12/28 00:29:14;;;;;;;10.85;5.43;;;5.90;99.90;;;;;;5070551;28;20044;-76
2022/12/28 00:31:40;;;;;;;13.25;5.57;;;5.90;99.90;;;;;;5088038;28;20074;-76
2022/12/28 00:34:06;;;;;;;10.50;5.60;;;5.90;99.90;;;;;;5088218;28;20085;-76
2022/12/28 00:36:31;;;;;;;9.55;5.35;;;5.90;99.90;;;;;;5087720;28;20036;-76
2022/12/28 00:38:57;;;;;;;12.60;5.85;;;5.90;99.90;;;;;;5087113;28;20048;-75
2022/12/28 00:41:23;;;;;;;10.98;5.65;;;5.90;99.90;;;;;;5103655;28;20078;-76
2022/12/28 00:43:49;;;;;;;11.73;5.63;;;5.90;99.90;;;;;;5087604;28;20044;-76
2022/12/28 00:46:16;;;;;;;10.15;5.63;;;5.90;99.90;;;;;;5087890;28;20051;-76
2022/12/28 00:48:42;;;;;;;11.77;6.28;;;5.90;99.90;;;;;;5087136;28;20559;-76
2022/12/28 00:51:12;;;;;;;12.10;6.30;;;5.90;99.90;;;;;;5069221;28;20082;-76
2022/12/28 00:53:37;;;;;;;13.40;5.93;;;5.90;99.90;;;;;;5084704;28;20044;-76
2022/12/28 00:56:05;;;;;;;9.75;5.72;;;5.90;99.90;;;;;;5087338;28;20127;-77
2022/12/28 00:58:31;;;;;;;12.98;6.40;;;5.80;99.90;;;;;;5086491;28;20044;-76
2022/12/28 01:00:56;;;;;;;15.98;6.40;;;5.80;99.90;;;;;;5070099;28;20085;-77
2022/12/28 01:03:22;;;;;;;11.13;6.28;;;5.90;99.90;;;;;;5086658;28;20052;-78
2022/12/28 01:05:47;;;;;;;11.68;5.93;;;5.90;99.90;;;;;;5068254;28;20131;-78
2022/12/28 01:08:13;;;;;;;11.18;6.22;;;5.80;99.90;;;;;;5069601;28;20052;-78
2022/12/28 01:10:39;;;;;;;12.10;6.82;;;5.90;99.90;;;;;;5067808;28;20043;-78
2022/12/28 01:13:05;;;;;;;10.68;5.72;;;5.80;99.90;;;;;;5087097;28;20040;-78
2022/12/28 01:15:31;;;;;;;12.35;6.47;;;5.90;99.90;;;;;;5086760;28;20123;-78
2022/12/28 01:17:56;;;;;;;10.77;7.00;;;5.90;99.90;;;;;;5087029;28;20059;-78
2022/12/28 01:20:22;;;;;;;11.63;6.97;;;5.80;99.90;;;;;;5084265;28;20079;-78
2022/12/28 01:22:47;;;;;;;13.18;6.97;;;5.90;99.90;;;;;;5066366;28;20040;-78
2022/12/28 01:25:13;;;;;;;11.75;7.00;;;5.90;99.90;;;;;;5084809;28;20044;-78
2022/12/28 01:27:39;;;;;;;11.13;6.38;;;5.90;99.90;;;;;;5087117;28;20051;-77
2022/12/28 01:30:05;;;;;;;10.45;6.28;;;5.90;99.90;;;;;;5087666;28;20044;-78
2022/12/28 01:32:30;;;;;;;11.43;6.88;;;5.90;99.90;;;;;;5087042;28;20101;-78
2022/12/28 01:34:56;;;;;;;11.02;6.50;;;5.90;99.90;;;;;;5085642;28;20040;-78
2022/12/28 01:37:22;;;;;;;14.52;7.15;;;5.90;99.90;;;;;;5087999;28;20040;-77
2022/12/28 01:39:47;;;;;;;12.18;6.80;;;5.90;99.90;;;;;;5100349;27;20054;-78
2022/12/28 01:42:18;;;;;;;10.93;6.10;;;5.90;99.90;;;;;;5086608;28;20040;-78
2022/12/28 01:44:46;;;;;;;11.15;6.10;;;5.90;99.90;;;;;;5066076;28;20179;-77
2022/12/28 01:47:16;;;;;;;14.30;6.03;;;5.90;99.90;;;;;;5084232;28;20491;-78
2022/12/28 01:49:57;;;;;;;10.60;6.15;;;5.90;99.90;;;;;;5068341;28;20120;-78
2022/12/28 01:52:45;;;;;;;10.63;5.55;;;5.90;99.90;;;;;;5069441;28;20104;-78
2022/12/28 01:55:22;;;;;;;12.63;6.22;;;5.90;99.90;;;;;;5083159;28;20040;-77
2022/12/28 01:57:53;;;;;;;;;;;6.00;99.90;;;;;;5066871;28;20039;-78
2022/12/28 02:00:19;;;;;;;11.63;5.40;;;5.90;99.90;;;;;;5086270;28;20466;-78
2022/12/28 02:03:10;;;;;;;11.00;5.13;;;5.90;99.90;;;;;;5083767;28;20043;-78
2022/12/28 02:05:41;;;;;;;13.40;5.97;;;6.00;99.90;;;;;;5058216;28;20496;-78
2022/12/28 02:08:23;;;;;;;10.73;5.97;;;6.00;99.90;;;;;;5086085;28;20048;-77
2022/12/28 02:10:50;;;;;;;10.02;5.90;;;6.00;99.90;;;;;;5101228;28;20035;-78
2022/12/28 02:13:16;;;;;;;11.13;5.78;;;6.00;99.90;;;;;;5067837;28;20043;-78
2022/12/28 02:15:43;;;;;;;12.77;5.68;;;6.00;99.90;;;;;;5063215;28;20043;-78
2022/12/28 02:18:11;;;;;;;13.68;6.53;;;6.00;99.90;;;;;;5063979;28;20127;-77
2022/12/28 02:21:03;;;;;;;10.23;5.43;;;6.00;99.90;;;;;;5084581;28;20047;-78
2022/12/28 02:23:46;;;;;;;10.70;5.97;;;6.00;99.90;;;;;;5069688;28;20044;-78
2022/12/28 02:26:46;;;;;;;10.30;6.07;;;6.10;99.90;;;;;;5090343;28;20651;-78
2022/12/28 02:29:42;;;;;;;12.27;5.45;;;6.10;99.90;;;;;;5057967;28;20046;-77
2022/12/28 02:32:35;;;;;;;10.15;5.40;;;6.10;99.90;;;;;;5086422;28;20113;-78
2022/12/28 02:35:13;;;;;;;11.40;5.70;;;6.10;99.90;;;;;;5089612;28;20036;-77
2022/12/28 02:37:54;;;;;;;12.57;6.22;;;6.10;99.90;;;;;;5079198;28;20123;-78
2022/12/28 02:40:29;;;;;;;12.43;5.80;;;6.10;99.90;;;;;;5083489;28;20044;-78
2022/12/28 02:42:55;;;;;;;8.57;5.95;;;6.20;99.90;;;;;;5088669;28;20580;-78
2022/12/28 02:52:11;;;;;;;13.13;6.50;;;6.20;99.90;;;;;;5078939;28;20048;-77
2022/12/28 02:58:02;;;;;;;12.00;6.68;;;6.20;99.90;;;;;;5087753;28;20096;-78
2022/12/28 03:01:04;;;;;;;15.82;7.97;;;6.20;99.90;;;;;;5089331;28;20039;-77
2022/12/28 03:04:07;;;;;;;13.68;7.45;;;6.20;99.90;;;;;;5087679;28;20098;-78
2022/12/28 03:09:49;;;;;;;13.03;7.07;;;6.10;99.90;;;;;;5089145;28;20506;-77
2022/12/28 03:12:32;;;;;;;12.30;7.70;;;6.10;99.90;;;;;;5088126;28;20306;-78
2022/12/28 03:15:07;;;;;;;11.95;7.90;;;6.10;99.90;;;;;;5085206;28;20376;-78
2022/12/28 03:31:34;;;;;;;15.10;8.75;;;6.20;99.90;;;;;;5101172;28;20079;-77
2022/12/28 03:34:06;;;;;;;;;;;6.20;99.90;;;;;;5089668;28;20051;-77
2022/12/28 03:37:05;;;;;;;12.50;8.40;;;6.30;99.90;;;;;;5088129;28;20022;-78
2022/12/28 03:39:33;;;;;;;12.77;8.32;;;6.30;99.90;;;;;;5068328;28;20488;-77
2022/12/28 03:45:26;;;;;;;14.63;8.82;;;6.30;99.90;;;;;;5087665;28;20052;-77
2022/12/28 03:47:53;;;;;;;12.73;8.70;;;6.30;99.90;;;;;;5065571;28;20135;-78
2022/12/28 03:50:20;;;;;;;14.00;7.60;;;6.40;99.90;;;;;;5086233;28;20446;-78
2022/12/28 03:52:46;;;;;;;12.07;7.90;;;6.40;99.90;;;;;;5069098;28;20032;-77
2022/12/28 03:55:15;;;;;;;10.45;8.20;;;6.40;99.90;;;;;;5066715;28;20044;-78
2022/12/28 03:57:41;;;;;;;14.00;8.10;;;6.40;99.90;;;;;;5088317;28;20072;-78
2022/12/28 04:00:10;;;;;;;12.38;8.10;;;6.40;99.90;;;;;;5088700;28;20062;-77
2022/12/28 04:02:36;;;;;;;12.27;7.80;;;6.50;99.90;;;;;;5088444;28;20043;-78
2022/12/28 04:05:03;;;;;;;11.20;8.57;;;6.50;99.90;;;;;;5086500;28;20036;-77
2022/12/28 04:07:28;;;;;;;11.45;7.55;;;6.50;99.90;;;;;;5068896;28;20122;-78
2022/12/28 04:09:54;;;;;;;11.18;7.53;;;6.50;99.90;;;;;;5086710;28;20040;-78
2022/12/28 04:12:20;;;;;;;13.15;8.07;;;6.50;99.90;;;;;;5087510;28;20036;-77
2022/12/28 04:14:45;;;;;;;13.05;8.00;;;6.50;99.90;;;;;;5087326;28;20036;-78
2022/12/28 04:17:11;;;;;;;10.85;7.38;;;6.50;99.90;;;;;;5069495;28;20039;-77
2022/12/28 04:19:37;;;;;;;11.88;8.60;;;6.50;99.90;;;;;;5067229;28;20036;-78
2022/12/28 04:22:02;;;;;;;11.15;7.97;;;6.60;99.90;;;;;;5069638;28;20063;-78
2022/12/28 04:24:28;;;;;;;11.32;7.82;;;6.50;99.90;;;;;;5068892;28;20066;-78
2022/12/28 04:26:54;;;;;;;11.00;8.00;;;6.50;99.90;;;;;;5088256;28;20050;-77
2022/12/28 04:29:19;;;;;;;11.05;7.95;;;6.60;99.90;;;;;;5086498;28;20134;-77
2022/12/28 04:31:45;;;;;;;11.95;8.52;;;6.50;99.90;;;;;;5088090;28;20484;-78
2022/12/28 04:34:11;;;;;;;12.73;8.98;;;6.50;99.90;;;;;;5087208;28;20044;-78
2022/12/28 04:36:38;;;;;;;12.25;8.05;;;6.60;99.90;;;;;;5099792;28;20046;-78
2022/12/28 04:39:04;;;;;;;11.55;7.80;;;6.50;99.90;;;;;;5067619;28;20237;-78
2022/12/28 04:41:30;;;;;;;9.77;7.90;;;6.60;99.90;;;;;;5088042;28;20063;-77
2022/12/28 04:43:56;;;;;;;10.57;7.70;;;6.60;99.90;;;;;;5086305;28;20493;-78
2022/12/28 04:46:22;;;;;;;10.95;7.03;;;6.60;99.90;;;;;;5085876;28;20109;-78
2022/12/28 04:48:48;;;;;;;11.07;7.93;;;6.60;99.90;;;;;;5066772;28;20510;-77
2022/12/28 04:51:20;;;;;;;10.02;7.57;;;6.60;99.90;;;;;;5086684;28;20298;-77
2022/12/28 04:53:46;;;;;;;10.02;8.13;;;6.60;99.90;;;;;;5082316;28;20139;-78
2022/12/28 04:56:14;;;;;;;10.70;7.47;;;6.60;99.90;;;;;;5088327;28;20434;-78
2022/12/28 04:58:40;;;;;;;9.60;7.38;;;6.60;99.90;;;;;;5069292;28;20400;-78
2022/12/28 05:01:09;;;;;;;9.32;7.47;;;6.70;99.90;;;;;;5069014;28;20079;-77
2022/12/28 05:03:36;;;;;;;9.00;7.13;;;6.60;99.90;;;;;;5068400;28;20127;-78
2022/12/28 05:06:03;;;;;;;10.75;7.95;;;6.70;99.90;;;;;;5086870;28;20173;-78
2022/12/28 05:08:36;;;;;;;8.55;7.05;;;6.70;99.90;;;;;;5083015;28;20135;-78
2022/12/28 05:11:04;;;;;;;11.85;7.28;;;6.70;99.90;;;;;;5067346;28;20032;-77
2022/12/28 05:13:30;;;;;;;11.95;8.27;;;6.70;99.90;;;;;;5087581;28;20036;-78
2022/12/28 05:16:00;;;;;;;9.93;8.27;;;6.70;99.90;;;;;;5086372;28;20032;-77
2022/12/28 05:18:26;;;;;;;10.48;8.93;;;6.70;99.90;;;;;;5065261;28;20052;-78
2022/12/28 05:21:02;;;;;;;9.88;8.13;;;6.70;99.90;;;;;;5086779;28;20051;-78
2022/12/28 05:23:29;;;;;;;8.07;7.03;;;6.80;99.90;;;;;;5085995;28;20040;-78
2022/12/28 05:25:55;;;;;;;8.70;7.72;;;6.80;99.90;;;;;;5088864;28;20024;-77
2022/12/28 05:28:22;;;;;;;9.47;8.53;;;6.80;99.90;;;;;;5087804;28;20040;-77
2022/12/28 05:30:48;;;;;;;9.40;8.40;;;6.80;99.90;;;;;;5083997;28;20376;-78
2022/12/28 05:33:13;;;;;;;9.80;8.57;;;6.90;99.90;;;;;;5068856;28;20147;-78
2022/12/28 05:35:39;;;;;;;10.45;8.70;;;6.80;99.90;;;;;;5087421;28;20078;-77
2022/12/28 05:38:05;;;;;;;10.73;9.10;;;6.80;99.90;;;;;;5066899;28;20483;-77
2022/12/28 05:40:30;;;;;;;10.95;9.18;;;6.90;99.90;;;;;;5084557;28;20040;-77
2022/12/28 05:42:56;;;;;;;10.77;8.82;;;6.80;99.90;;;;;;5087231;28;20067;-78
2022/12/28 05:45:21;;;;;;;11.65;8.82;;;6.90;99.90;;;;;;5101448;28;20075;-78
2022/12/28 05:47:47;;;;;;;10.60;9.05;;;6.90;99.90;;;;;;5068466;28;20052;-78
2022/12/28 05:50:13;;;;;;;10.25;8.45;;;6.90;99.90;;;;;;5086068;28;20059;-78
2022/12/28 05:52:38;;;;;;;8.73;7.82;;;7.00;99.90;;;;;;5086958;28;20048;-77
2022/12/28 05:55:04;;;;;;;9.50;8.60;;;7.00;99.90;;;;;;5065804;28;20425;-77
2022/12/28 05:57:30;;;;;;;10.32;8.63;;;7.00;99.90;;;;;;5082942;28;20036;-78
2022/12/28 05:59:56;;;;;;;9.82;8.77;;;6.90;99.90;;;;;;5084887;28;20088;-78
2022/12/28 06:02:24;;;;;;;10.10;8.90;;;7.00;99.90;;;;;;5085142;28;20040;-78
2022/12/28 06:04:50;;;;;;;9.70;8.65;;;7.00;99.90;;;;;;5084454;28;20610;-78
2022/12/28 06:07:15;;;;;;;9.63;8.73;;;7.00;99.90;;;;;;5087352;28;20277;-78
2022/12/28 06:09:41;;;;;;;10.65;9.55;;;7.10;99.90;;;;;;5083746;28;20081;-78
2022/12/28 06:12:07;;;;;;;10.82;9.65;;;7.10;99.90;;;;;;5081933;28;20071;-78
2022/12/28 06:14:32;;;;;;;9.93;8.93;;;7.10;99.90;;;;;;5084745;28;20052;-78
2022/12/28 06:16:58;;;;;;;9.80;8.80;;;7.10;99.90;;;;;;5085863;28;20048;-78
2022/12/28 06:19:23;;;;;;;10.40;9.32;;;7.20;99.90;;;;;;5084613;28;20032;-78
2022/12/28 06:21:49;;;;;;;10.18;9.00;;;7.20;99.90;;;;;;5083671;28;20153;-77
2022/12/28 06:24:16;;;;;;;10.55;9.55;;;7.20;99.90;;;;;;5083372;28;20067;-78
2022/12/28 06:26:42;;;;;;;10.90;9.80;;;7.20;99.90;;;;;;5082239;28;20052;-78
2022/12/28 06:29:08;;;;;;;10.65;9.65;;;7.30;99.90;;;;;;5083563;28;20035;-77
2022/12/28 06:31:37;;;;;;;11.98;10.23;;;7.20;99.90;;;;;;5084687;28;20040;-78
2022/12/28 06:34:05;;;;;;;11.15;9.77;;;7.20;99.90;;;;;;5084978;28;20765;-77
2022/12/28 06:36:38;;;;;;;;;;;7.30;99.90;;;;;;5068232;28;20043;-78
2022/12/28 06:39:07;;;;;;;11.90;10.70;;;7.30;99.90;;;;;;5065222;28;19927;-78
2022/12/28 06:41:34;;;;;;;11.65;10.25;;;7.30;99.90;;;;;;5063382;28;20503;-78
2022/12/28 06:44:00;;;;;;;12.40;11.10;;;7.30;99.90;;;;;;5084827;28;20048;-75
2022/12/28 06:46:28;;;;;;;12.07;10.88;;;7.40;99.90;;;;;;5085893;28;20071;-78
2022/12/28 06:48:54;;;;;;;11.57;10.38;;;7.30;99.90;;;;;;5086332;28;20052;-78
2022/12/28 06:51:40;;;;;;;13.10;11.80;;;7.30;99.90;;;;;;5084497;28;20162;-78
2022/12/28 06:54:07;;;;;;;12.52;11.23;;;7.40;99.90;;;;;;5083598;28;20050;-78
2022/12/28 06:56:34;;;;;;;12.70;11.40;;;7.40;99.90;;;;;;5085107;28;20054;-79
2022/12/28 06:59:00;;;;;;;13.23;11.93;;;7.40;99.90;;;;;;5062935;28;20150;-79
2022/12/28 07:01:29;;;;;;;13.35;12.00;;;7.40;99.90;;;;;;5084290;28;20040;-78
2022/12/28 07:03:57;;;;;;;13.48;12.18;;;7.40;99.90;;;;;;5064642;28;20055;-78
2022/12/28 07:06:26;;;;;;;13.73;12.32;;;7.50;99.90;;;;;;5085580;28;20051;-78
2022/12/28 07:09:02;;;;;;;13.15;11.95;;;7.50;99.90;;;;;;5070197;28;20048;-78
2022/12/28 07:11:29;;;;;;;16.20;13.68;;;7.30;99.90;;;;;;5086092;28;20491;-82
2022/12/28 07:13:55;;;;;;;14.57;13.18;;;7.50;99.90;;;;;;5079978;28;20036;-76
2022/12/28 07:16:22;;;;;;;15.52;13.95;;;7.50;99.90;;;;;;5068945;28;20511;-76
2022/12/28 07:18:48;;;;;;;15.35;13.82;;;7.50;99.90;;;;;;5089680;28;20411;-76
2022/12/28 07:21:17;;;;;;;16.55;14.88;;;7.60;99.90;;;;;;5073452;28;20486;-76
2022/12/28 07:23:43;;;;;;;17.17;14.60;;;7.60;99.90;;;;;;5070768;28;20284;-76
2022/12/28 07:26:11;;;;;;;16.88;15.05;;;7.60;99.90;;;;;;5071789;28;20197;-76
2022/12/28 07:28:38;;;;;;;17.45;15.65;;;7.60;99.90;;;;;;5087548;28;20109;-76
2022/12/28 07:31:10;;;;;;;16.63;14.93;;;7.60;99.90;;;;;;5072259;28;20443;-76
2022/12/28 07:33:36;;;;;;;17.13;15.32;;;7.60;99.90;;;;;;5089880;28;20129;-76
2022/12/28 07:36:04;;;;;;;17.13;15.33;;;7.60;99.90;;;;;;5105784;28;20047;-75
2022/12/28 07:38:29;;;;;;;;;;;7.70;99.90;;;;;;5087045;28;20428;-76
2022/12/28 07:41:03;;;;;;;16.35;14.40;;;7.70;99.90;;;;;;5088290;28;20043;-76
2022/12/28 07:43:29;;;;;;;16.35;14.73;;;7.70;99.90;;;;;;5099923;28;20123;-76
2022/12/28 07:46:04;;;;;;;18.08;16.20;;;7.70;99.90;;;;;;5088298;28;20154;-77
2022/12/28 07:48:34;;;;;;;17.75;15.85;;;7.70;99.90;;;;;;5088536;28;20537;-77
2022/12/28 07:51:18;;;;;;;17.80;15.82;;;7.70;99.90;;;;;;5089665;28;20067;-76
2022/12/28 07:53:46;;;;;;;17.42;15.60;;;7.80;99.90;;;;;;5069603;28;20056;-76
2022/12/28 07:56:13;;;;;;;18.10;16.33;;;7.80;99.90;;;;;;5089979;28;20048;-76
2022/12/28 07:58:40;;;;;;;16.88;15.15;;;7.80;99.90;;;;;;5070889;28;20111;-77
2022/12/28 08:01:12;;;;;;;17.52;15.52;;;7.80;99.90;;;;;;5103504;28;20048;-76
2022/12/28 08:03:38;;;;;;;16.35;14.65;;;7.80;99.90;;;;;;5091719;28;20492;-76
2022/12/28 08:06:05;;;;;;;17.27;15.30;;;7.90;99.90;;;;;;5089031;28;20057;-76
2022/12/28 08:08:39;;;;;;;15.55;14.05;;;7.90;99.90;;;;;;5070979;28;20040;-76
2022/12/28 08:11:09;;;;;;;17.00;15.27;;;7.80;99.90;;;;;;5087871;28;20063;-76
2022/12/28 08:13:37;;;;;;;15.98;14.43;;;7.80;99.90;;;;;;5070885;28;20052;-75
2022/12/28 08:16:03;;;;;;;16.05;14.45;;;7.90;99.90;;;;;;5087114;28;20040;-75
2022/12/28 08:18:29;;;;;;;16.83;15.02;;;7.90;99.90;;;;;;5100189;27;20056;-77
2022/12/28 08:21:00;;;;;;;16.90;15.30;;;7.90;99.90;;;;;;5070505;28;20043;-78
2022/12/28 08:23:26;;;;;;;16.60;14.55;;;7.90;99.90;;;;;;5104000;28;20108;-72
2022/12/28 08:25:51;;;;;;;15.75;14.23;;;8.00;99.90;;;;;;5069136;28;20283;-80
2022/12/28 08:28:17;;;;;;;15.60;13.90;;;8.00;99.90;;;;;;5088413;28;20108;-79
2022/12/28 08:30:43;;;;;;;16.05;14.20;;;8.00;99.90;;;;;;5088601;28;20044;-79
2022/12/28 08:33:08;;;;;;;15.23;13.73;;;8.00;99.90;;;;;;5071314;28;20044;-80
2022/12/28 08:35:34;;;;;;;15.32;13.73;;;8.00;99.90;;;;;;5085762;28;20080;-82
2022/12/28 08:37:59;;;;;;;16.55;14.85;;;8.00;99.90;;;;;;5087552;28;20131;-81
2022/12/28 08:40:28;;;;;;;15.80;13.98;;;8.00;99.90;;;;;;5068407;28;20040;-80
2022/12/28 08:42:58;;;;;;;14.80;13.30;;;8.00;99.90;;;;;;5084071;28;20093;-80
2022/12/28 08:45:24;;;;;;;14.80;13.30;;;8.00;99.90;;;;;;5102253;27;20132;-81
2022/12/28 08:47:50;;;;;;;14.20;12.77;;;8.00;99.90;;;;;;5086975;28;20165;-80
2022/12/28 08:50:15;;;;;;;13.57;12.18;;;8.00;99.90;;;;;;5068277;28;20183;-79
2022/12/28 08:52:41;;;;;;;14.43;12.93;;;8.00;99.90;;;;;;5086722;28;20105;-85
2022/12/28 08:55:07;;;;;;;14.00;12.57;;;8.00;99.90;;;;;;5087113;28;20047;-86
2022/12/28 08:57:32;;;;;;;15.70;14.10;;;8.00;99.90;;;;;;5069030;28;20206;-86
2022/12/28 08:59:58;;;;;;;14.40;12.90;;;8.10;99.90;;;;;;5089214;28;20131;-84
2022/12/28 09:02:24;;;;;;;14.02;12.63;;;8.10;99.90;;;;;;5069351;28;20036;-80
2022/12/28 09:04:49;;;;;;;14.70;13.20;;;8.10;99.90;;;;;;5085693;28;20036;-76
2022/12/28 09:07:15;;;;;;;14.75;13.27;;;8.10;99.90;;;;;;5085638;28;20475;-83
2022/12/28 09:09:41;;;;;;;15.20;13.68;;;8.10;99.90;;;;;;5084771;28;20518;-82
2022/12/28 09:12:06;;;;;;;14.30;12.70;;;8.20;99.90;;;;;;5088353;28;20032;-81
2022/12/28 09:14:32;;;;;;;15.93;13.38;;;8.10;99.90;;;;;;5088750;28;20071;-82
2022/12/28 09:16:58;;;;;;;14.65;13.15;;;8.20;99.90;;;;;;5072455;28;20044;-81
2022/12/28 09:19:23;;;;;;;14.23;12.75;;;8.20;99.90;;;;;;5069219;28;20482;-76
2022/12/28 09:21:51;;;;;;;13.68;12.25;;;8.20;99.90;;;;;;5067402;28;20044;-76
2022/12/28 09:24:17;;;;;;;13.40;12.10;;;8.20;99.90;;;;;;5086655;28;20047;-82
2022/12/28 09:26:43;;;;;;;13.95;12.45;;;8.20;99.90;;;;;;5087903;28;20043;-82
2022/12/28 09:29:12;;;;;;;13.32;11.80;;;8.30;99.90;;;;;;5088324;28;20519;-82
2022/12/28 09:31:39;;;;;;;11.68;10.55;;;8.20;99.90;;;;;;5086786;28;20090;-81
2022/12/28 09:34:06;;;;;;;12.05;10.82;;;8.20;99.90;;;;;;5069314;28;20108;-81
2022/12/28 09:36:40;;;;;;;12.57;11.23;;;8.30;99.90;;;;;;5088328;28;20051;-80
2022/12/28 09:39:08;;;;;;;11.38;10.25;;;8.30;99.90;;;;;;5085477;28;20040;-81
2022/12/28 09:42:03;;;;;;;12.07;10.82;;;8.20;99.90;;;;;;5067072;28;20044;-81
2022/12/28 09:44:35;;;;;;;12.02;10.68;;;8.30;99.90;;;;;;5067501;28;20067;-85
2022/12/28 09:47:07;;;;;;;13.13;11.68;;;8.30;99.90;;;;;;5066955;28;20073;-81
2022/12/28 09:49:42;;;;;;;12.65;11.05;;;8.30;99.90;;;;;;5088452;28;20123;-80
2022/12/28 09:52:33;;;;;;;12.70;11.40;;;8.30;99.90;;;;;;5103344;28;20044;-76
2022/12/28 09:55:25;;;;;;;13.10;11.55;;;8.40;99.90;;;;;;5069726;28;20105;-79
2022/12/28 09:57:54;;;;;;;12.68;11.20;;;8.40;99.90;;;;;;5083267;28;20056;-77
2022/12/28 10:00:21;;;;;;;12.88;11.30;;;8.40;99.90;;;;;;5102721;28;20043;-76
2022/12/28 10:03:01;;;;;;;12.82;11.52;;;8.40;99.90;;;;;;5069920;28;20505;-78
2022/12/28 10:05:28;;;;;;;13.18;11.85;;;8.40;99.90;;;;;;5068415;28;20040;-76
2022/12/28 10:07:57;;;;;;;12.53;11.23;;;8.50;99.90;;;;;;5048265;28;20500;-76
2022/12/28 10:10:25;;;;;;;12.85;11.48;;;8.50;99.90;;;;;;5049252;28;20145;-76
2022/12/28 10:12:51;;;;;;;13.52;12.05;;;8.50;99.90;;;;;;5067329;28;20048;-76
2022/12/28 10:15:17;;;;;;;12.55;11.25;;;8.50;99.90;;;;;;5049023;28;20071;-76
2022/12/28 10:17:43;;;;;;;13.63;11.82;;;8.50;99.90;;;;;;5049293;28;20112;-76
2022/12/28 10:20:18;;;;;;;13.48;12.10;;;8.60;99.90;;;;;;5067257;28;20480;-76
2022/12/28 10:22:48;;;;;;;12.25;10.95;;;8.50;99.90;;;;;;5050963;28;20715;-80
2022/12/28 10:25:16;;;;;;;14.02;11.80;;;8.60;99.90;;;;;;5083265;28;20051;-81
2022/12/28 10:27:42;;;;;;;12.23;10.93;;;8.60;99.90;;;;;;5102493;28;20074;-79
2022/12/28 10:30:25;;;;;;;12.50;10.65;;;8.60;99.90;;;;;;5088386;28;20040;-80
2022/12/28 10:32:58;;;;;;;13.10;10.43;;;8.60;99.90;;;;;;5086126;28;20482;-93
2022/12/28 10:35:34;;;;;;;11.32;9.77;;;8.60;99.90;;;;;;5103096;28;20040;-80
2022/12/28 10:38:04;;;;;;;11.35;10.15;;;8.60;99.90;;;;;;5087856;28;20878;-79
2022/12/28 10:40:35;;;;;;;13.00;10.73;;;8.70;99.90;;;;;;5086124;28;20056;-83
2022/12/28 10:43:01;;;;;;;11.43;10.20;;;8.60;99.90;;;;;;5068780;28;20051;-83
2022/12/28 10:45:37;;;;;;;12.77;10.50;;;8.70;99.90;;;;;;5088620;28;20483;-77
2022/12/28 10:48:13;;;;;;;12.13;10.43;;;8.70;99.90;;;;;;5090077;28;20052;-77
2022/12/28 10:50:54;;;;;;;10.68;9.57;;;8.60;99.90;;;;;;5086349;28;20044;-74
2022/12/28 10:53:40;;;;;;;11.18;9.95;;;8.70;99.90;;;;;;5072437;28;20051;-74
2022/12/28 10:56:12;;;;;;;11.38;9.43;;;8.70;99.90;;;;;;5089317;28;20047;-74
2022/12/28 10:58:39;;;;;;;11.13;9.82;;;8.70;99.90;;;;;;5072897;28;20092;-74
2022/12/28 11:01:27;;;;;;;11.38;9.85;;;8.60;99.90;;;;;;5071081;28;20081;-74
2022/12/28 11:03:55;;;;;;;10.07;8.32;;;8.70;99.90;;;;;;5069950;28;20067;-74
2022/12/28 11:06:27;;;;;;;10.73;8.50;;;8.80;99.90;;;;;;5088031;28;20051;-74
2022/12/28 11:09:11;;;;;;;9.88;8.77;;;8.70;99.90;;;;;;5089287;28;20115;-86
2022/12/28 11:11:37;;;;;;;11.13;8.75;;;8.80;99.90;;;;;;5081203;28;20047;-81
2022/12/28 11:14:18;;;;;;;8.75;7.85;;;8.80;99.90;;;;;;5088400;28;20044;-83
2022/12/28 11:16:44;;;;;;;9.30;7.97;;;8.80;99.90;;;;;;5069328;28;20545;-83
2022/12/28 11:19:11;;;;;;;7.80;7.00;;;8.80;99.90;;;;;;5088253;28;20063;-83
2022/12/28 11:21:37;;;;;;;8.00;7.20;;;8.80;99.90;;;;;;5068118;28;20036;-82
2022/12/28 11:24:04;;;;;;;9.10;7.38;;;8.70;99.90;;;;;;5085275;28;20048;-78
2022/12/28 11:26:31;;;;;;;8.45;7.30;;;8.80;99.90;;;;;;5088896;28;20036;-85
2022/12/28 11:28:59;;;;;;;;;;;8.80;99.90;;;;;;5070579;28;20044;-85
2022/12/28 11:31:36;;;;;;;8.20;7.40;;;8.80;99.90;;;;;;5102262;28;20381;-87
2022/12/28 11:34:05;;;;;;;7.95;7.07;;;8.80;99.90;;;;;;5089078;28;20510;-87
2022/12/28 11:36:37;;;;;;;8.73;6.80;;;8.80;99.90;;;;;;5070310;28;20052;-83
2022/12/28 11:39:32;;;;;;;8.05;6.38;;;8.80;99.90;;;;;;5088038;28;20368;-84
2022/12/28 11:41:59;;;;;;;7.55;6.45;;;8.80;99.90;;;;;;5078958;28;20047;-82
2022/12/28 11:44:33;;;;;;;6.80;6.07;;;8.80;99.90;;;;;;5087934;28;20135;-80
2022/12/28 11:47:03;;;;;;;7.18;6.10;;;8.80;99.90;;;;;;5066600;28;20569;-81
2022/12/28 11:49:32;;;;;;;8.07;6.32;;;8.90;99.90;;;;;;5067265;28;20040;-77
2022/12/28 11:52:16;;;;;;;7.68;6.25;;;8.90;99.90;;;;;;5087529;28;20154;-77
2022/12/28 11:54:51;;;;;;;7.05;6.25;;;8.90;99.90;;;;;;5086569;28;20044;-76
2022/12/28 11:57:35;;;;;;;7.22;6.07;;;8.90;99.90;;;;;;5069921;28;20071;-75
2022/12/28 12:00:16;;;;;;;7.97;7.15;;;8.90;99.90;;;;;;5069772;28;20101;-75
2022/12/28 12:02:55;;;;;;;7.57;6.20;;;9.00;99.90;;;;;;5088725;28;20044;-75
2022/12/28 12:05:36;;;;;;;7.65;5.88;;;9.00;99.90;;;;;;5070539;28;20111;-80
2022/12/28 12:08:21;;;;;;;6.43;5.60;;;9.00;99.90;;;;;;5065049;28;20073;-77
2022/12/28 12:11:04;;;;;;;7.60;5.80;;;9.00;99.90;;;;;;5075794;28;20044;-79
2022/12/28 12:13:37;;;;;;;6.50;5.75;;;9.00;99.90;;;;;;5086239;28;20040;-76
2022/12/28 12:16:14;;;;;;;9.52;5.90;;;9.00;99.90;;;;;;5067269;28;20062;-75
2022/12/28 12:18:49;;;;;;;7.55;5.68;;;8.90;99.90;;;;;;5068801;28;20066;-77
2022/12/28 12:21:32;;;;;;;6.60;5.70;;;9.00;99.90;;;;;;5087693;28;20040;-79
2022/12/28 12:24:09;;;;;;;6.15;5.50;;;8.90;99.90;;;;;;5086735;28;20506;-76
2022/12/28 12:26:38;;;;;;;6.18;5.53;;;9.00;99.90;;;;;;5067178;28;20036;-85
2022/12/28 12:29:14;;;;;;;8.80;8.00;;;9.00;99.90;;;;;;5067146;28;20075;-86
2022/12/28 12:31:47;;;;;;;6.35;5.75;;;9.00;99.90;;;;;;5086557;28;20503;-83
2022/12/28 12:34:22;;;;;;;8.65;5.68;;;8.90;99.90;;;;;;5087481;28;20127;-84
2022/12/28 12:37:03;;;;;;;6.30;5.63;;;9.00;99.90;;;;;;5069866;28;20052;-85
2022/12/28 12:39:29;;;;;;;6.95;5.38;;;9.00;99.90;;;;;;5088226;28;20105;-86
2022/12/28 12:42:08;;;;;;;6.00;5.40;;;9.00;99.90;;;;;;5067791;28;20487;-84
2022/12/28 12:45:01;;;;;;;6.50;5.90;;;8.90;99.90;;;;;;5070063;28;20048;-85
2022/12/28 12:48:05;;;;;;;5.20;4.70;;;8.90;99.90;;;;;;5077404;28;20110;-84
2022/12/28 12:51:03;;;;;;;6.18;5.05;;;8.90;99.90;;;;;;5067825;28;20036;-76
2022/12/28 12:53:49;;;;;;;5.95;5.22;;;8.90;99.90;;;;;;5057186;28;20052;-76
2022/12/28 12:56:17;;;;;;;6.68;4.85;;;8.90;99.90;;;;;;5068021;28;20069;-76
2022/12/28 12:59:03;;;;;;;5.22;4.70;;;9.00;99.90;;;;;;5087237;28;20052;-76
2022/12/28 13:01:54;;;;;;;5.75;4.85;;;9.00;99.90;;;;;;5085865;28;20395;-76
2022/12/28 13:04:26;;;;;;;5.47;4.50;;;9.00;99.90;;;;;;5069726;28;20090;-78
2022/12/28 13:06:57;;;;;;;5.88;4.13;;;9.00;99.90;;;;;;5065940;28;20055;-78
2022/12/28 13:09:26;;;;;;;6.00;4.38;;;9.00;99.90;;;;;;5086298;28;20083;-78
2022/12/28 13:11:52;;;;;;;4.80;4.13;;;9.00;99.90;;;;;;5065950;28;20616;-78
2022/12/28 13:14:21;;;;;;;4.50;3.88;;;9.00;99.90;;;;;;5069354;28;20051;-78
2022/12/28 13:16:52;;;;;;;5.65;4.00;;;9.00;99.90;;;;;;5086529;28;20084;-78
2022/12/28 13:19:23;;;;;;;3.92;3.40;;;9.00;99.90;;;;;;5069134;28;20065;-78
2022/12/28 13:21:51;;;;;;;4.28;3.38;;;9.00;99.90;;;;;;5082910;28;20169;-78
2022/12/28 13:24:27;;;;;;;4.40;4.00;;;9.00;99.90;;;;;;5086062;28;20494;-79
2022/12/28 13:26:54;;;;;;;4.47;3.67;;;9.00;99.90;;;;;;5066437;28;20411;-84
2022/12/28 13:29:31;;;;;;;5.22;3.90;;;8.90;99.90;;;;;;5096054;28;20036;-82
2022/12/28 13:31:57;;;;;;;4.45;3.25;;;9.00;99.90;;;;;;5083715;28;20063;-82
2022/12/28 13:34:28;;;;;;;3.30;3.00;;;9.10;99.90;;;;;;5067388;28;20051;-81
2022/12/28 13:36:57;;;;;;;3.63;3.30;;;9.10;99.90;;;;;;5084534;28;20040;-81